createdAt,value
2019-05-07T00:02:24.277Z,9.10
2019-05-07T00:04:55.731Z,9.10
2019-05-07T00:07:29.227Z,9.00
2019-05-07T00:10:03.386Z,9.00
2019-05-07T00:12:32.849Z,9.00
2019-05-07T00:15:04.658Z,9.00
2019-05-07T00:17:33.286Z,9.00
2019-05-07T00:20:08.526Z,9.00
2019-05-07T00:22:37.417Z,9.00
2019-05-07T00:25:12.392Z,9.00
2019-05-07T00:27:44.619Z,9.00
2019-05-07T00:30:16.069Z,9.00
2019-05-07T00:32:47.640Z,8.90
2019-05-07T00:35:32.292Z,8.90
2019-05-07T00:38:05.683Z,8.90
2019-05-07T00:40:44.885Z,8.90
2019-05-07T00:43:15.540Z,8.90
2019-05-07T00:45:52.926Z,8.80
2019-05-07T00:48:23.432Z,8.80
2019-05-07T00:50:57.368Z,8.80
2019-05-07T00:53:26.467Z,8.80
2019-05-07T00:55:57.914Z,8.70
2019-05-07T00:58:32.641Z,8.70
2019-05-07T01:01:04.705Z,8.70
2019-05-07T01:03:36.155Z,8.70
2019-05-07T01:06:06.172Z,8.60
2019-05-07T01:08:42.958Z,8.70
2019-05-07T01:11:13.188Z,8.60
2019-05-07T01:13:43.184Z,8.60
2019-05-07T01:16:17.907Z,8.60
2019-05-07T01:18:49.978Z,8.70
2019-05-07T01:21:19.870Z,8.70
2019-05-07T01:23:54.823Z,8.70
2019-05-07T01:26:23.693Z,8.70
2019-05-07T01:29:02.863Z,8.60
2019-05-07T01:31:37.136Z,8.70
2019-05-07T01:34:07.692Z,8.60
2019-05-07T01:36:38.505Z,8.60
2019-05-07T01:39:09.953Z,8.60
2019-05-07T01:41:45.190Z,8.60
2019-05-07T01:44:17.282Z,8.60
2019-05-07T01:46:49.449Z,8.60
2019-05-07T01:49:21.001Z,8.60
2019-05-07T01:51:53.022Z,8.60
2019-05-07T01:54:24.107Z,8.60
2019-05-07T01:56:53.847Z,8.60
2019-05-07T01:59:23.612Z,8.60
2019-05-07T02:01:56.926Z,8.60
2019-05-07T02:04:32.544Z,8.60
2019-05-07T02:07:17.029Z,8.60
2019-05-07T02:09:51.786Z,8.50
2019-05-07T02:12:22.229Z,8.50
2019-05-07T02:14:53.071Z,8.50
2019-05-07T02:17:23.740Z,8.60
2019-05-07T02:19:55.822Z,8.50
2019-05-07T02:22:32.027Z,8.50
2019-05-07T02:25:03.831Z,8.50
2019-05-07T02:27:33.623Z,8.40
2019-05-07T02:30:04.251Z,8.40
2019-05-07T02:32:36.248Z,8.40
2019-05-07T02:35:08.077Z,8.40
2019-05-07T02:37:48.262Z,8.40
2019-05-07T02:40:22.692Z,8.40
2019-05-07T02:42:53.970Z,8.40
2019-05-07T02:45:29.575Z,8.40
2019-05-07T02:47:59.590Z,8.40
2019-05-07T02:50:35.746Z,8.40
2019-05-07T02:53:27.373Z,8.40
2019-05-07T02:56:03.329Z,8.40
2019-05-07T02:58:33.147Z,8.40
2019-05-07T03:01:04.785Z,8.40
2019-05-07T03:03:34.591Z,8.40
2019-05-07T03:06:09.228Z,8.40
2019-05-07T03:08:43.862Z,8.30
2019-05-07T03:11:14.132Z,8.30
2019-05-07T03:13:44.898Z,8.30
2019-05-07T03:16:13.785Z,8.30
2019-05-07T03:18:43.798Z,8.20
2019-05-07T03:21:17.319Z,8.20
2019-05-07T03:23:54.064Z,8.20
2019-05-07T03:26:33.940Z,8.20
2019-05-07T03:29:04.020Z,8.10
2019-05-07T03:31:47.376Z,8.10
2019-05-07T03:34:18.335Z,8.10
2019-05-07T03:36:56.462Z,8.10
2019-05-07T03:39:24.082Z,8.10
2019-05-07T03:41:53.278Z,8.00
2019-05-07T03:44:33.863Z,8.00
2019-05-07T03:47:16.896Z,7.90
2019-05-07T03:49:48.738Z,7.90
2019-05-07T03:52:18.752Z,7.90
2019-05-07T03:54:47.510Z,7.90
2019-05-07T03:57:23.763Z,7.90
2019-05-07T04:00:04.192Z,7.80
2019-05-07T04:02:33.367Z,7.90
2019-05-07T04:05:04.372Z,7.90
2019-05-07T04:07:33.562Z,7.90
2019-05-07T04:10:10.126Z,7.80
2019-05-07T04:12:39.359Z,7.90
2019-05-07T04:15:19.530Z,7.90
2019-05-07T04:17:53.591Z,7.90
2019-05-07T04:20:36.879Z,7.90
2019-05-07T04:23:05.751Z,7.90
2019-05-07T04:25:58.391Z,8.00
2019-05-07T04:28:29.051Z,7.90
2019-05-07T04:31:02.930Z,8.00
2019-05-07T04:33:39.458Z,8.00
2019-05-07T04:36:14.102Z,7.90
2019-05-07T04:38:45.837Z,7.90
2019-05-07T04:41:14.609Z,7.90
2019-05-07T04:43:43.755Z,7.90
2019-05-07T04:46:18.485Z,7.80
2019-05-07T04:48:47.318Z,7.80
2019-05-07T04:51:17.793Z,7.80
2019-05-07T04:53:46.557Z,7.80
2019-05-07T04:56:15.447Z,7.80
2019-05-07T04:58:45.241Z,7.90
2019-05-07T05:01:15.691Z,7.90
2019-05-07T05:03:44.524Z,7.90
2019-05-07T05:06:13.841Z,7.90
2019-05-07T05:08:43.656Z,7.90
2019-05-07T05:11:13.040Z,7.80
2019-05-07T05:13:44.524Z,7.80
2019-05-07T05:16:27.410Z,7.80
2019-05-07T05:19:02.547Z,7.80
2019-05-07T05:21:52.849Z,7.70
2019-05-07T05:24:35.242Z,7.70
2019-05-07T05:27:06.692Z,7.70
2019-05-07T05:29:39.280Z,7.70
2019-05-07T05:32:13.998Z,7.80
2019-05-07T05:34:45.434Z,7.80
2019-05-07T05:37:17.284Z,7.90
2019-05-07T05:40:04.861Z,8.00
2019-05-07T05:42:29.838Z,8.00
2019-05-07T05:44:58.700Z,8.00
2019-05-07T05:47:28.746Z,8.10
2019-05-07T05:49:57.532Z,8.10
2019-05-07T05:52:28.968Z,8.20
2019-05-07T05:54:59.409Z,8.20
2019-05-07T05:57:32.117Z,8.20
2019-05-07T06:00:04.628Z,8.20
2019-05-07T06:02:54.429Z,8.30
2019-05-07T06:05:41.608Z,8.30
2019-05-07T06:08:28.583Z,8.40
2019-05-07T06:11:14.440Z,8.40
2019-05-07T06:13:52.666Z,8.40
2019-05-07T06:16:29.138Z,8.30
2019-05-07T06:19:08.679Z,8.40
2019-05-07T06:21:55.490Z,8.40
2019-05-07T06:24:37.759Z,8.40
2019-05-07T06:27:07.721Z,8.50
2019-05-07T06:29:37.624Z,8.60
2019-05-07T06:32:13.964Z,8.70
2019-05-07T06:34:48.596Z,8.80
2019-05-07T06:37:20.066Z,8.90
2019-05-07T06:40:05.217Z,9.00
2019-05-07T06:42:42.781Z,9.10
2019-05-07T06:45:16.264Z,9.10
2019-05-07T06:47:45.104Z,9.20
2019-05-07T06:50:13.988Z,9.30
2019-05-07T06:52:42.813Z,9.40
2019-05-07T06:55:14.848Z,9.40
2019-05-07T06:57:43.681Z,9.50
2019-05-07T07:00:16.032Z,9.60
2019-05-07T07:03:05.817Z,9.70
2019-05-07T07:05:36.355Z,9.70
2019-05-07T07:08:17.641Z,9.80
2019-05-07T07:11:04.749Z,9.90
2019-05-07T07:13:33.668Z,10.00
2019-05-07T07:16:02.479Z,10.00
2019-05-07T07:18:48.605Z,10.10
2019-05-07T07:21:13.247Z,10.20
2019-05-07T07:23:42.994Z,10.30
2019-05-07T07:26:12.645Z,10.30
2019-05-07T07:28:42.974Z,10.40
2019-05-07T07:31:29.050Z,10.50
2019-05-07T07:34:01.959Z,10.50
2019-05-07T07:36:32.143Z,10.60
2019-05-07T07:39:02.075Z,10.80
2019-05-07T07:41:33.705Z,10.90
2019-05-07T07:44:05.171Z,11.00
2019-05-07T07:46:42.280Z,11.20
2019-05-07T07:49:14.946Z,11.30
2019-05-07T07:51:45.175Z,11.50
2019-05-07T07:54:13.088Z,11.70
2019-05-07T07:57:02.378Z,11.70
2019-05-07T07:59:42.118Z,11.80
2019-05-07T08:02:18.031Z,11.80
2019-05-07T08:04:46.856Z,11.80
2019-05-07T08:07:22.847Z,11.80
2019-05-07T08:09:52.098Z,11.90
2019-05-07T08:12:22.169Z,12.00
2019-05-07T08:14:51.981Z,12.10
2019-05-07T08:17:22.520Z,11.90
2019-05-07T08:19:52.679Z,12.10
2019-05-07T08:22:22.570Z,12.20
2019-05-07T08:24:54.762Z,12.30
2019-05-07T08:27:29.360Z,12.30
2019-05-07T08:29:58.149Z,12.40
2019-05-07T08:32:44.777Z,12.60
2019-05-07T08:35:23.605Z,12.80
2019-05-07T08:37:55.519Z,13.10
2019-05-07T08:40:24.371Z,13.30
2019-05-07T08:42:56.631Z,13.40
2019-05-07T08:45:43.404Z,13.60
2019-05-07T08:48:16.496Z,13.80
2019-05-07T08:50:45.433Z,14.00
2019-05-07T08:53:17.282Z,14.00
2019-05-07T08:55:46.048Z,14.20
2019-05-07T08:58:17.941Z,14.40
2019-05-07T09:00:49.375Z,14.60
2019-05-07T09:03:39.108Z,14.90
2019-05-07T09:06:07.936Z,15.40
2019-05-07T09:08:37.755Z,16.00
2019-05-07T09:11:09.171Z,16.10
2019-05-07T09:13:37.988Z,16.30
2019-05-07T09:16:06.757Z,16.50
2019-05-07T09:18:35.524Z,16.70
2019-05-07T09:21:04.360Z,17.00
2019-05-07T09:23:38.984Z,17.20
2019-05-07T09:26:13.028Z,17.70
2019-05-07T09:28:59.877Z,18.00
2019-05-07T09:31:33.111Z,18.10
2019-05-07T09:34:02.640Z,18.30
2019-05-07T09:36:42.462Z,18.60
2019-05-07T09:39:12.124Z,18.90
2019-05-07T09:41:41.786Z,19.10
2019-05-07T09:44:11.925Z,19.20
2019-05-07T09:46:42.914Z,19.20
2019-05-07T09:49:12.059Z,19.30
2019-05-07T09:51:42.700Z,19.50
2019-05-07T09:54:17.493Z,19.40
2019-05-07T09:56:49.746Z,19.10
2019-05-07T09:59:22.545Z,18.60
2019-05-07T10:01:57.557Z,18.00
2019-05-07T10:04:29.031Z,17.70
2019-05-07T10:07:02.561Z,17.10
2019-05-07T10:09:37.260Z,16.90
2019-05-07T10:12:28.955Z,16.90
2019-05-07T10:14:57.953Z,16.80
2019-05-07T10:17:28.605Z,16.70
2019-05-07T10:20:03.138Z,16.80
2019-05-07T10:22:34.376Z,16.90
2019-05-07T10:25:09.001Z,17.10
2019-05-07T10:27:41.823Z,17.70
2019-05-07T10:30:12.636Z,18.30
2019-05-07T10:32:42.188Z,18.40
2019-05-07T10:35:13.078Z,18.20
2019-05-07T10:37:42.808Z,18.50
2019-05-07T10:40:12.589Z,18.50
2019-05-07T10:42:43.059Z,18.60
2019-05-07T10:45:26.095Z,18.80
2019-05-07T10:47:56.484Z,19.20
2019-05-07T10:50:37.959Z,19.60
2019-05-07T10:52:57.382Z,19.80
2019-05-07T10:55:26.156Z,19.60
2019-05-07T10:57:54.916Z,19.30
2019-05-07T11:00:26.446Z,19.00
2019-05-07T11:02:58.220Z,19.10
2019-05-07T11:05:27.027Z,19.10
2019-05-07T11:07:55.851Z,19.30
2019-05-07T11:10:24.617Z,19.60
2019-05-07T11:13:02.111Z,19.80
2019-05-07T11:15:35.367Z,20.00
2019-05-07T11:18:22.205Z,20.40
2019-05-07T11:20:53.334Z,20.70
2019-05-07T11:23:22.243Z,21.00
2019-05-07T11:25:52.676Z,20.90
2019-05-07T11:28:22.678Z,20.70
2019-05-07T11:30:52.635Z,20.40
2019-05-07T11:33:22.042Z,20.10
2019-05-07T11:35:52.790Z,19.70
2019-05-07T11:38:24.997Z,19.40
2019-05-07T11:40:55.956Z,19.30
2019-05-07T11:43:26.367Z,19.10
2019-05-07T11:45:58.940Z,19.10
2019-05-07T11:48:28.122Z,19.40
2019-05-07T11:51:03.689Z,19.70
2019-05-07T11:53:32.724Z,20.00
2019-05-07T11:56:02.579Z,20.40
2019-05-07T11:58:37.495Z,20.40
2019-05-07T12:01:08.895Z,20.20
2019-05-07T12:03:43.412Z,19.90
2019-05-07T12:06:13.236Z,19.80
2019-05-07T12:08:49.818Z,19.70
2019-05-07T12:11:18.189Z,19.40
2019-05-07T12:13:47.033Z,19.30
2019-05-07T12:16:15.804Z,19.30
2019-05-07T12:18:44.643Z,19.60
2019-05-07T12:21:21.105Z,19.90
2019-05-07T12:23:48.026Z,20.20
2019-05-07T12:26:16.894Z,20.40
2019-05-07T12:28:45.672Z,20.40
2019-05-07T12:31:16.079Z,20.60
2019-05-07T12:33:49.485Z,20.50
2019-05-07T12:36:24.232Z,20.40
2019-05-07T12:38:55.027Z,20.10
2019-05-07T12:41:34.125Z,19.80
2019-05-07T12:44:06.051Z,19.70
2019-05-07T12:46:35.040Z,19.40
2019-05-07T12:49:11.768Z,19.20
2019-05-07T12:51:42.703Z,19.10
2019-05-07T12:54:20.242Z,19.10
2019-05-07T12:56:55.088Z,19.20
2019-05-07T12:59:23.900Z,19.20
2019-05-07T13:01:54.359Z,19.00
2019-05-07T13:04:25.760Z,19.00
2019-05-07T13:06:58.724Z,18.90
2019-05-07T13:09:27.571Z,19.00
2019-05-07T13:12:03.006Z,19.10
2019-05-07T13:14:34.067Z,19.20
2019-05-07T13:17:05.489Z,19.30
2019-05-07T13:19:34.261Z,19.40
2019-05-07T13:22:03.100Z,19.50
2019-05-07T13:24:32.857Z,19.70
2019-05-07T13:27:03.303Z,19.50
2019-05-07T13:29:37.956Z,19.40
2019-05-07T13:32:09.364Z,19.20
2019-05-07T13:34:38.140Z,19.10
2019-05-07T13:37:17.596Z,18.90
2019-05-07T13:39:52.038Z,18.70
2019-05-07T13:42:38.532Z,18.30
2019-05-07T13:45:11.954Z,18.00
2019-05-07T13:47:44.236Z,17.70
2019-05-07T13:50:13.975Z,17.40
2019-05-07T13:52:43.440Z,17.10
2019-05-07T13:55:12.942Z,16.90
2019-05-07T13:57:41.784Z,16.70
2019-05-07T14:00:13.109Z,16.50
2019-05-07T14:02:42.882Z,16.40
2019-05-07T14:05:14.523Z,16.20
2019-05-07T14:07:49.371Z,16.30
2019-05-07T14:10:24.194Z,16.30
2019-05-07T14:12:53.093Z,16.50
2019-05-07T14:15:27.818Z,16.70
2019-05-07T14:18:02.417Z,16.90
2019-05-07T14:20:33.067Z,17.00
2019-05-07T14:23:01.855Z,17.10
2019-05-07T14:25:33.681Z,17.10
2019-05-07T14:28:02.468Z,17.20
2019-05-07T14:30:32.773Z,17.20
2019-05-07T14:33:08.340Z,17.20
2019-05-07T14:35:45.611Z,17.20
2019-05-07T14:38:22.669Z,17.10
2019-05-07T14:40:52.041Z,17.00
2019-05-07T14:43:25.291Z,16.90
2019-05-07T14:45:54.239Z,16.70
2019-05-07T14:48:23.023Z,16.60
2019-05-07T14:50:53.079Z,16.40
2019-05-07T14:53:22.562Z,16.30
2019-05-07T14:55:51.344Z,16.20
2019-05-07T14:58:26.065Z,16.20
2019-05-07T15:00:57.596Z,16.30
2019-05-07T15:03:26.363Z,16.30
2019-05-07T15:05:55.356Z,16.30
2019-05-07T15:08:24.188Z,16.30
2019-05-07T15:10:59.238Z,16.40
2019-05-07T15:13:28.315Z,16.50
2019-05-07T15:16:03.200Z,16.60
2019-05-07T15:18:42.805Z,16.60
2019-05-07T15:21:12.539Z,16.60
2019-05-07T15:23:43.969Z,16.60
2019-05-07T15:26:43.372Z,16.60
2019-05-07T15:29:15.434Z,16.60
2019-05-07T15:32:00.813Z,16.50
2019-05-07T15:34:29.648Z,16.30
2019-05-07T15:37:01.657Z,16.30
2019-05-07T15:39:36.503Z,16.20
2019-05-07T15:42:05.676Z,16.10
2019-05-07T15:44:34.455Z,16.10
2019-05-07T15:47:04.921Z,16.00
2019-05-07T15:49:33.904Z,16.00
2019-05-07T15:52:04.333Z,16.10
2019-05-07T15:54:35.166Z,16.30
2019-05-07T15:57:08.587Z,16.50
2019-05-07T15:59:41.805Z,16.70
2019-05-07T16:02:24.792Z,16.90
2019-05-07T16:04:53.608Z,16.90
2019-05-07T16:07:22.608Z,16.90
2019-05-07T16:09:57.506Z,16.80
2019-05-07T16:12:26.341Z,16.70
2019-05-07T16:14:55.129Z,16.50
2019-05-07T16:17:27.706Z,16.40
2019-05-07T16:20:03.130Z,16.20
2019-05-07T16:22:35.009Z,16.20
2019-05-07T16:25:07.170Z,16.20
2019-05-07T16:27:36.444Z,16.30
2019-05-07T16:30:06.976Z,16.20
2019-05-07T16:32:35.746Z,16.20
2019-05-07T16:35:05.860Z,16.20
2019-05-07T16:37:37.296Z,16.20
2019-05-07T16:40:08.709Z,16.10
2019-05-07T16:42:38.147Z,16.10
2019-05-07T16:45:09.113Z,16.00
2019-05-07T16:47:37.986Z,15.90
2019-05-07T16:50:08.025Z,15.80
2019-05-07T16:52:36.966Z,15.70
2019-05-07T16:55:12.097Z,15.70
2019-05-07T16:57:44.705Z,15.60
2019-05-07T17:00:15.432Z,15.60
2019-05-07T17:02:51.566Z,15.50
2019-05-07T17:05:22.843Z,15.40
2019-05-07T17:07:56.003Z,15.20
2019-05-07T17:10:27.482Z,15.10
2019-05-07T17:13:17.644Z,15.00
2019-05-07T17:15:59.269Z,14.90
2019-05-07T17:18:34.001Z,14.90
2019-05-07T17:21:03.901Z,14.80
2019-05-07T17:23:43.930Z,14.70
2019-05-07T17:26:12.206Z,14.70
2019-05-07T17:28:42.578Z,14.60
2019-05-07T17:31:12.415Z,14.50
2019-05-07T17:33:42.481Z,14.50
2019-05-07T17:36:12.071Z,14.40
2019-05-07T17:38:42.872Z,14.30
2019-05-07T17:41:19.907Z,14.30
2019-05-07T17:43:42.239Z,14.30
2019-05-07T17:46:12.286Z,14.30
2019-05-07T17:48:42.808Z,14.30
2019-05-07T17:51:16.572Z,14.40
2019-05-07T17:53:57.573Z,14.40
2019-05-07T17:56:22.755Z,14.40
2019-05-07T17:58:57.371Z,14.50
2019-05-07T18:01:32.673Z,14.50
2019-05-07T18:04:07.161Z,14.60
2019-05-07T18:06:38.636Z,14.60
2019-05-07T18:09:07.743Z,14.60
2019-05-07T18:11:36.597Z,14.60
2019-05-07T18:14:05.366Z,14.50
2019-05-07T18:16:36.780Z,14.40
2019-05-07T18:19:05.664Z,14.40
2019-05-07T18:21:34.441Z,14.40
2019-05-07T18:24:13.048Z,14.30
2019-05-07T18:26:34.083Z,14.30
2019-05-07T18:29:02.964Z,14.30
2019-05-07T18:31:45.336Z,14.30
2019-05-07T18:34:14.226Z,14.30
2019-05-07T18:36:42.993Z,14.20
2019-05-07T18:39:11.902Z,14.10
2019-05-07T18:41:41.720Z,14.10
2019-05-07T18:44:15.349Z,14.10
2019-05-07T18:46:43.195Z,14.00
2019-05-07T18:49:12.772Z,14.00
2019-05-07T18:51:42.649Z,14.10
2019-05-07T18:54:13.282Z,14.10
2019-05-07T18:56:42.432Z,14.10
2019-05-07T18:59:12.244Z,14.10
2019-05-07T19:01:42.974Z,14.10
2019-05-07T19:04:12.895Z,14.10
2019-05-07T19:06:42.436Z,14.10
2019-05-07T19:09:11.700Z,14.10
2019-05-07T19:11:42.588Z,14.00
2019-05-07T19:14:13.256Z,14.00
2019-05-07T19:16:43.067Z,14.00
2019-05-07T19:19:12.550Z,13.90
2019-05-07T19:21:42.307Z,13.90
2019-05-07T19:24:11.572Z,13.80
2019-05-07T19:26:42.108Z,13.70
2019-05-07T19:29:12.488Z,13.70
2019-05-07T19:31:42.050Z,13.60
2019-05-07T19:34:12.289Z,13.50
2019-05-07T19:36:42.409Z,13.40
2019-05-07T19:39:12.645Z,13.40
2019-05-07T19:41:43.044Z,13.30
2019-05-07T19:44:12.714Z,13.30
2019-05-07T19:46:41.690Z,13.20
2019-05-07T19:49:10.473Z,13.20
2019-05-07T19:51:39.247Z,13.20
2019-05-07T19:54:08.207Z,13.10
2019-05-07T19:56:37.713Z,13.10
2019-05-07T19:59:06.581Z,13.10
2019-05-07T20:01:37.111Z,13.00
2019-05-07T20:04:06.017Z,12.90
2019-05-07T20:06:34.809Z,12.90
2019-05-07T20:09:12.015Z,12.90
2019-05-07T20:11:46.787Z,12.90
2019-05-07T20:14:15.603Z,12.90
2019-05-07T20:16:46.052Z,12.90
2019-05-07T20:19:14.829Z,12.90
2019-05-07T20:21:52.368Z,12.90
2019-05-07T20:24:21.928Z,12.80
2019-05-07T20:26:52.651Z,12.80
2019-05-07T20:29:22.904Z,12.80
2019-05-07T20:31:53.206Z,12.70
2019-05-07T20:34:22.404Z,12.70
2019-05-07T20:36:51.854Z,12.70
2019-05-07T20:39:23.114Z,12.70
2019-05-07T20:41:52.624Z,12.70
2019-05-07T20:44:21.655Z,12.70
2019-05-07T20:46:50.447Z,12.70
2019-05-07T20:49:19.329Z,12.60
2019-05-07T20:51:48.195Z,12.60
2019-05-07T20:54:18.826Z,12.60
2019-05-07T20:56:49.253Z,12.60
2019-05-07T20:59:18.269Z,12.50
2019-05-07T21:01:47.141Z,12.50
2019-05-07T21:04:16.053Z,12.50
2019-05-07T21:06:44.863Z,12.40
2019-05-07T21:09:13.640Z,12.40
2019-05-07T21:11:43.027Z,12.40
2019-05-07T21:14:12.242Z,12.30
2019-05-07T21:16:42.477Z,12.30
2019-05-07T21:19:12.778Z,12.20
2019-05-07T21:21:42.291Z,12.20
2019-05-07T21:24:13.044Z,12.10
2019-05-07T21:26:42.379Z,12.10
2019-05-07T21:29:13.795Z,12.10
2019-05-07T21:31:43.113Z,12.10
2019-05-07T21:34:12.603Z,12.00
2019-05-07T21:36:43.236Z,12.00
2019-05-07T21:39:13.020Z,12.00
2019-05-07T21:41:42.719Z,12.00
2019-05-07T21:44:11.893Z,11.90
2019-05-07T21:46:42.517Z,11.90
2019-05-07T21:49:12.226Z,11.90
2019-05-07T21:51:41.558Z,11.90
2019-05-07T21:54:20.562Z,11.90
2019-05-07T21:56:52.249Z,11.90
2019-05-07T21:59:23.262Z,11.90
2019-05-07T22:02:02.057Z,11.80
2019-05-07T22:04:30.481Z,11.80
2019-05-07T22:06:59.271Z,11.80
2019-05-07T22:09:28.344Z,11.80
2019-05-07T22:11:57.255Z,11.80
2019-05-07T22:14:26.131Z,11.80
2019-05-07T22:16:54.949Z,11.80
2019-05-07T22:19:24.850Z,11.80
2019-05-07T22:21:53.739Z,11.80
2019-05-07T22:24:22.615Z,11.80
2019-05-07T22:26:51.408Z,11.80
2019-05-07T22:29:22.562Z,11.70
2019-05-07T22:32:09.072Z,11.80
2019-05-07T22:34:42.566Z,11.70
2019-05-07T22:37:12.561Z,11.70
2019-05-07T22:39:41.679Z,11.60
2019-05-07T22:42:11.852Z,11.60
2019-05-07T22:44:42.558Z,11.60
2019-05-07T22:47:22.747Z,11.50
2019-05-07T22:49:53.656Z,11.50
2019-05-07T22:52:22.529Z,11.50
2019-05-07T22:54:51.611Z,11.50
2019-05-07T22:57:25.191Z,11.50
2019-05-07T22:59:53.960Z,11.50
2019-05-07T23:02:23.094Z,11.50
2019-05-07T23:04:52.169Z,11.50
2019-05-07T23:07:27.025Z,11.50
2019-05-07T23:09:56.009Z,11.50
2019-05-07T23:12:26.451Z,11.50
2019-05-07T23:14:56.349Z,11.50
2019-05-07T23:17:25.239Z,11.50
2019-05-07T23:19:55.108Z,11.50
2019-05-07T23:22:24.352Z,11.50
2019-05-07T23:24:53.242Z,11.50
2019-05-07T23:27:22.610Z,11.50
2019-05-07T23:29:52.998Z,11.50
2019-05-07T23:32:22.241Z,11.50
2019-05-07T23:34:52.755Z,11.40
2019-05-07T23:37:22.447Z,11.40
2019-05-07T23:39:59.053Z,11.40
2019-05-07T23:42:47.737Z,11.40
2019-05-07T23:45:16.541Z,11.40
2019-05-07T23:47:45.332Z,11.40
2019-05-07T23:50:14.193Z,11.30
2019-05-07T23:52:44.169Z,11.30
2019-05-07T23:55:13.307Z,11.30
2019-05-07T23:57:43.084Z,11.30
